createdAt,value
2023-06-06T00:02:20.866Z,3.40
2023-06-06T00:07:23.983Z,3.00
2023-06-06T00:12:27.027Z,3.50
2023-06-06T00:17:32.914Z,3.60
2023-06-06T00:22:36.803Z,3.43
2023-06-06T00:27:39.897Z,3.37
2023-06-06T00:32:44.368Z,3.80
2023-06-06T00:37:47.987Z,3.70
2023-06-06T00:42:51.822Z,3.80
2023-06-06T00:47:56.307Z,3.53
2023-06-06T00:52:59.961Z,3.70
2023-06-06T00:58:03.461Z,3.70
2023-06-06T01:03:11.400Z,3.50
2023-06-06T01:08:15.205Z,3.90
2023-06-06T01:13:27.973Z,3.90
2023-06-06T01:18:35.141Z,3.50
2023-06-06T01:23:39.840Z,3.80
2023-06-06T01:28:43.006Z,3.80
2023-06-06T01:33:51.902Z,3.97
2023-06-06T01:39:01.589Z,4.20
2023-06-06T01:44:07.178Z,3.90
2023-06-06T01:49:11.108Z,4.07
2023-06-06T01:54:16.096Z,4.00
2023-06-06T01:59:19.571Z,3.47
2023-06-06T02:04:22.833Z,3.80
2023-06-06T02:09:28.080Z,4.03
2023-06-06T02:14:31.173Z,3.93
2023-06-06T02:19:34.566Z,4.47
2023-06-06T02:24:39.382Z,3.90
2023-06-06T02:29:42.611Z,3.93
2023-06-06T02:34:45.707Z,3.50
2023-06-06T02:39:50.382Z,3.73
2023-06-06T02:44:53.644Z,3.80
2023-06-06T02:49:56.948Z,3.97
2023-06-06T02:55:01.513Z,3.87
2023-06-06T03:00:08.966Z,3.90
2023-06-06T03:05:13.127Z,3.83
2023-06-06T03:10:19.188Z,3.53
2023-06-06T03:15:22.891Z,3.93
2023-06-06T03:20:25.949Z,3.80
2023-06-06T03:25:30.364Z,4.07
2023-06-06T03:30:33.669Z,4.33
2023-06-06T03:35:37.603Z,4.73
2023-06-06T03:40:42.446Z,4.30
2023-06-06T03:45:45.561Z,4.40
2023-06-06T03:50:50.438Z,3.90
2023-06-06T03:55:55.538Z,4.20
2023-06-06T04:00:59.933Z,4.70
2023-06-06T04:06:03.889Z,4.50
2023-06-06T04:11:08.590Z,4.47
2023-06-06T04:16:12.282Z,4.30
2023-06-06T04:21:15.416Z,4.23
2023-06-06T04:26:25.708Z,4.10
2023-06-06T04:31:30.727Z,3.97
2023-06-06T04:36:34.901Z,3.83
2023-06-06T04:46:47.053Z,4.00
2023-06-06T04:51:51.552Z,3.63
2023-06-06T04:56:58.457Z,4.13
2023-06-06T05:02:03.203Z,3.80
2023-06-06T05:07:07.517Z,3.60
2023-06-06T05:12:13.966Z,3.70
2023-06-06T05:17:19.508Z,3.80
2023-06-06T05:22:23.082Z,4.30
2023-06-06T05:27:27.606Z,3.80
2023-06-06T05:32:30.966Z,3.97
2023-06-06T05:37:34.091Z,3.90
2023-06-06T05:42:39.657Z,3.53
2023-06-06T05:47:43.208Z,4.10
2023-06-06T05:52:46.719Z,4.33
2023-06-06T05:57:51.129Z,4.00
2023-06-06T06:02:57.425Z,3.70
2023-06-06T06:08:02.422Z,4.40
2023-06-06T06:13:07.528Z,4.00
2023-06-06T06:18:11.140Z,4.10
2023-06-06T06:23:14.919Z,3.93
2023-06-06T06:28:23.944Z,3.80
2023-06-06T06:33:28.756Z,3.80
2023-06-06T06:38:32.204Z,3.93
2023-06-06T06:43:36.687Z,3.60
2023-06-06T06:48:40.281Z,3.30
2023-06-06T06:53:43.719Z,3.63
2023-06-06T06:58:50.249Z,3.25
2023-06-06T07:03:54.050Z,3.70
2023-06-06T07:08:58.548Z,3.55
2023-06-06T07:14:03.906Z,3.50
2023-06-06T07:19:07.842Z,3.42
2023-06-06T07:24:11.410Z,3.25
2023-06-06T07:29:16.129Z,3.35
2023-06-06T07:34:19.565Z,3.45
2023-06-06T07:39:22.621Z,3.28
2023-06-06T07:44:27.083Z,3.50
2023-06-06T07:49:30.497Z,3.17
2023-06-06T07:54:34.217Z,3.08
2023-06-06T07:59:39.175Z,3.58
2023-06-06T08:04:46.957Z,3.28
2023-06-06T08:09:50.550Z,3.40
2023-06-06T08:14:54.946Z,3.60
2023-06-06T08:19:58.070Z,3.58
2023-06-06T08:25:01.359Z,3.47
2023-06-06T08:30:07.106Z,3.45
2023-06-06T08:35:11.261Z,3.60
2023-06-06T08:40:15.137Z,3.50
2023-06-06T08:45:22.170Z,3.25
2023-06-06T08:50:27.632Z,3.30
2023-06-06T08:55:30.746Z,3.30
2023-06-06T09:00:35.186Z,3.55
2023-06-06T09:05:39.928Z,3.40
2023-06-06T09:10:44.498Z,3.28
2023-06-06T09:15:50.417Z,3.53
2023-06-06T09:20:54.613Z,3.65
2023-06-06T09:25:57.801Z,3.30
2023-06-06T09:31:02.242Z,3.40
2023-06-06T09:36:06.984Z,3.10
2023-06-06T09:41:10.037Z,3.60
2023-06-06T09:46:19.507Z,3.05
2023-06-06T09:51:23.783Z,3.40
2023-06-06T09:56:30.765Z,3.53
2023-06-06T10:01:36.900Z,3.08
2023-06-06T10:06:44.531Z,3.13
2023-06-06T10:11:48.519Z,3.42
2023-06-06T10:16:54.203Z,3.67
2023-06-06T10:21:59.418Z,3.30
2023-06-06T10:27:10.020Z,3.55
2023-06-06T10:32:18.567Z,3.60
2023-06-06T10:37:23.745Z,3.25
2023-06-06T10:42:37.286Z,3.22
2023-06-06T10:47:48.194Z,3.33
2023-06-06T10:52:56.121Z,3.28
2023-06-06T10:58:08.036Z,3.80
2023-06-06T11:03:16.965Z,3.53
2023-06-06T11:08:21.094Z,3.65
2023-06-06T11:13:28.027Z,3.63
2023-06-06T11:18:43.938Z,3.75
2023-06-06T11:23:47.102Z,3.92
2023-06-06T11:28:51.663Z,3.50
2023-06-06T11:34:05.673Z,3.70
2023-06-06T11:39:12.325Z,3.95
2023-06-06T11:44:17.802Z,3.92
2023-06-06T11:49:24.088Z,4.00
2023-06-06T11:54:31.462Z,3.80
2023-06-06T11:59:36.279Z,3.95
2023-06-06T12:04:49.153Z,3.83
2023-06-06T12:10:00.357Z,3.35
2023-06-06T12:15:03.665Z,3.20
2023-06-06T12:20:11.166Z,3.47
2023-06-06T12:25:26.221Z,3.60
2023-06-06T12:30:33.066Z,3.50
2023-06-06T12:35:37.456Z,3.67
2023-06-06T12:40:40.953Z,3.63
2023-06-06T12:45:44.542Z,3.70
2023-06-06T12:50:48.916Z,3.45
2023-06-06T12:55:52.516Z,3.95
2023-06-06T13:00:56.154Z,3.60
2023-06-06T13:06:00.708Z,3.50
2023-06-06T13:11:04.045Z,3.95
2023-06-06T13:16:08.435Z,3.47
2023-06-06T13:21:13.251Z,3.17
2023-06-06T13:26:16.603Z,3.17
2023-06-06T13:31:20.168Z,3.47
2023-06-06T13:36:24.862Z,3.78
2023-06-06T13:41:27.976Z,3.53
2023-06-06T13:46:37.332Z,3.20
2023-06-06T13:51:47.588Z,3.30
2023-06-06T13:56:51.108Z,3.40
2023-06-06T14:01:54.718Z,3.15
2023-06-06T14:07:01.190Z,3.17
2023-06-06T14:12:07.284Z,3.25
2023-06-06T14:17:10.720Z,3.30
2023-06-06T14:22:29.218Z,2.90
2023-06-06T14:27:34.349Z,3.13
2023-06-06T14:32:37.953Z,3.10
2023-06-06T14:37:42.919Z,3.15
2023-06-06T14:42:46.437Z,3.20
2023-06-06T14:47:49.520Z,3.42
2023-06-06T14:52:53.930Z,3.22
2023-06-06T14:57:56.995Z,3.20
2023-06-06T15:03:00.296Z,3.33
2023-06-06T15:08:05.212Z,3.20
2023-06-06T15:13:08.918Z,3.58
2023-06-06T15:18:12.719Z,2.90
2023-06-06T15:23:19.314Z,3.03
2023-06-06T15:28:22.451Z,2.70
2023-06-06T15:33:26.006Z,3.45
2023-06-06T15:38:30.853Z,3.20
2023-06-06T15:43:34.069Z,3.25
2023-06-06T15:48:37.160Z,2.80
2023-06-06T15:53:41.730Z,2.78
2023-06-06T15:58:47.287Z,2.78
2023-06-06T16:03:50.438Z,2.83
2023-06-06T16:08:55.180Z,2.80
2023-06-06T16:13:58.249Z,2.70
2023-06-06T16:19:01.463Z,2.67
2023-06-06T16:24:06.696Z,2.80
2023-06-06T16:29:09.775Z,2.60
2023-06-06T16:34:12.858Z,2.70
2023-06-06T16:39:17.267Z,2.63
2023-06-06T16:44:23.014Z,3.00
2023-06-06T16:49:26.126Z,3.20
2023-06-06T16:54:32.169Z,2.80
2023-06-06T16:59:35.404Z,2.50
2023-06-06T17:04:38.441Z,2.80
2023-06-06T17:09:43.378Z,2.60
2023-06-06T17:14:46.732Z,2.70
2023-06-06T17:19:49.784Z,2.60
2023-06-06T17:24:57.251Z,2.65
2023-06-06T17:30:03.790Z,2.92
2023-06-06T17:35:09.779Z,2.88
2023-06-06T17:40:14.793Z,2.53
2023-06-06T17:45:17.842Z,2.53
2023-06-06T17:50:21.169Z,2.80
2023-06-06T17:55:25.949Z,3.00
2023-06-06T18:00:29.257Z,3.17
2023-06-06T18:05:34.994Z,3.10
2023-06-06T18:10:42.887Z,2.97
2023-06-06T18:15:46.232Z,2.60
2023-06-06T18:20:49.468Z,2.90
2023-06-06T18:25:54.572Z,3.10
2023-06-06T18:30:57.916Z,3.10
2023-06-06T18:36:01.776Z,2.70
2023-06-06T18:41:06.788Z,2.90
2023-06-06T18:46:12.204Z,2.80
2023-06-06T18:51:15.526Z,3.40
2023-06-06T18:56:20.228Z,2.60
2023-06-06T19:01:23.816Z,3.20
2023-06-06T19:06:27.171Z,2.80
2023-06-06T19:11:32.050Z,3.20
2023-06-06T19:16:35.272Z,2.87
2023-06-06T19:21:39.279Z,3.20
2023-06-06T19:26:44.386Z,3.23
2023-06-06T19:31:48.634Z,3.37
2023-06-06T19:36:51.922Z,3.30
2023-06-06T19:41:58.663Z,3.30
2023-06-06T19:47:01.771Z,3.10
2023-06-06T19:52:05.621Z,3.50
2023-06-06T19:57:10.260Z,3.50
2023-06-06T20:02:13.940Z,3.00
2023-06-06T20:07:17.263Z,3.20
2023-06-06T20:12:21.837Z,3.20
2023-06-06T20:17:25.286Z,3.57
2023-06-06T20:22:29.289Z,3.30
2023-06-06T20:27:35.103Z,3.63
2023-06-06T20:32:38.361Z,3.37
2023-06-06T20:37:41.916Z,3.20
2023-06-06T20:42:46.547Z,3.23
2023-06-06T20:47:50.175Z,3.67
2023-06-06T20:52:53.447Z,3.00
2023-06-06T20:57:58.113Z,3.63
2023-06-06T21:03:01.549Z,3.33
2023-06-06T21:08:05.153Z,3.30
2023-06-06T21:13:09.690Z,3.50
2023-06-06T21:18:13.312Z,3.53
2023-06-06T21:23:17.001Z,3.20
2023-06-06T21:28:21.546Z,3.40
2023-06-06T21:33:24.989Z,3.60
2023-06-06T21:38:28.186Z,3.30
2023-06-06T21:43:33.101Z,3.50
2023-06-06T21:48:36.605Z,3.60
2023-06-06T21:53:41.610Z,3.43
2023-06-06T21:58:46.171Z,3.93
2023-06-06T22:03:49.693Z,3.43
2023-06-06T22:08:54.943Z,3.93
2023-06-06T22:13:59.942Z,3.90
2023-06-06T22:19:03.441Z,4.37
2023-06-06T22:24:07.566Z,3.67
2023-06-06T22:29:12.483Z,3.57
2023-06-06T22:34:15.712Z,3.77
2023-06-06T22:39:19.013Z,3.40
2023-06-06T22:44:24.076Z,3.63
2023-06-06T22:49:27.268Z,4.00
2023-06-06T22:54:30.455Z,3.77
2023-06-06T22:59:35.201Z,4.10
2023-06-06T23:04:38.763Z,3.60
2023-06-06T23:09:41.978Z,4.07
2023-06-06T23:14:47.328Z,3.87
2023-06-06T23:19:51.971Z,4.10
2023-06-06T23:24:55.366Z,4.50
2023-06-06T23:29:59.965Z,4.30
2023-06-06T23:35:03.394Z,3.90
2023-06-06T23:40:08.369Z,4.03
2023-06-06T23:45:13.552Z,3.97
2023-06-06T23:50:17.264Z,3.97
2023-06-06T23:55:20.834Z,4.10
